createdAt,value
2023-05-16T00:00:25.034Z,5.12
2023-05-16T00:01:24.917Z,5.15
2023-05-16T00:02:24.902Z,4.98
2023-05-16T00:03:24.859Z,5.35
2023-05-16T00:04:24.819Z,5.47
2023-05-16T00:05:24.715Z,4.86
2023-05-16T00:06:24.744Z,4.91
2023-05-16T00:07:24.646Z,4.64
2023-05-16T00:08:24.610Z,5.05
2023-05-16T00:09:24.583Z,4.82
2023-05-16T00:11:23.516Z,4.76
2023-05-16T00:12:24.456Z,4.78
2023-05-16T00:13:24.444Z,4.84
2023-05-16T00:14:24.388Z,4.62
2023-05-16T00:15:24.442Z,4.57
2023-05-16T00:16:24.388Z,4.62
2023-05-16T00:17:24.298Z,4.93
2023-05-16T00:18:24.242Z,4.91
2023-05-16T00:19:24.287Z,5.10
2023-05-16T00:20:24.230Z,4.54
2023-05-16T00:21:24.131Z,4.71
2023-05-16T00:22:24.087Z,4.87
2023-05-16T00:23:24.051Z,4.29
2023-05-16T00:24:24.005Z,4.85
2023-05-16T00:25:24.008Z,4.69
2023-05-16T00:26:23.943Z,4.78
2023-05-16T00:27:23.895Z,4.48
2023-05-16T00:28:23.864Z,4.68
2023-05-16T00:29:23.847Z,4.24
2023-05-16T00:30:23.822Z,4.69
2023-05-16T00:31:23.839Z,4.47
2023-05-16T00:32:23.763Z,4.43
2023-05-16T00:33:23.667Z,5.25
2023-05-16T00:34:23.636Z,4.58
2023-05-16T00:35:23.600Z,4.77
2023-05-16T00:36:24.019Z,4.36
2023-05-16T00:37:23.503Z,4.89
2023-05-16T00:38:23.470Z,4.62
2023-05-16T00:39:23.449Z,4.72
2023-05-16T00:40:23.430Z,4.90
2023-05-16T00:41:23.427Z,4.48
2023-05-16T00:42:23.393Z,5.02
2023-05-16T00:43:23.357Z,4.52
2023-05-16T00:44:23.337Z,4.88
2023-05-16T00:45:23.370Z,4.77
2023-05-16T00:46:23.385Z,4.12
2023-05-16T00:47:23.294Z,4.93
2023-05-16T00:48:23.248Z,4.93
2023-05-16T00:49:23.235Z,4.32
2023-05-16T00:50:23.283Z,4.45
2023-05-16T00:51:23.211Z,4.54
2023-05-16T00:52:23.185Z,4.85
2023-05-16T00:53:23.179Z,4.81
2023-05-16T00:54:23.157Z,4.58
2023-05-16T00:55:23.146Z,4.73
2023-05-16T00:56:23.106Z,4.34
2023-05-16T00:57:23.089Z,4.66
2023-05-16T00:58:23.057Z,4.66
2023-05-16T00:59:23.037Z,4.24
2023-05-16T01:00:23.046Z,4.46
2023-05-16T01:01:23.068Z,4.56
2023-05-16T01:02:23.010Z,4.87
2023-05-16T01:03:23.067Z,3.91
2023-05-16T01:04:22.935Z,4.50
2023-05-16T01:05:22.943Z,4.72
2023-05-16T01:06:22.889Z,4.74
2023-05-16T01:07:22.875Z,4.38
2023-05-16T01:08:22.851Z,4.54
2023-05-16T01:09:22.842Z,4.98
2023-05-16T01:10:22.872Z,4.86
2023-05-16T01:11:22.798Z,4.55
2023-05-16T01:12:22.786Z,4.39
2023-05-16T01:13:22.779Z,4.39
2023-05-16T01:14:22.751Z,4.47
2023-05-16T01:15:22.744Z,4.76
2023-05-16T01:16:22.750Z,4.04
2023-05-16T01:17:22.773Z,5.01
2023-05-16T01:18:22.649Z,4.65
2023-05-16T01:19:22.754Z,4.68
2023-05-16T01:20:22.649Z,4.45
2023-05-16T01:21:22.596Z,5.08
2023-05-16T01:22:22.577Z,4.55
2023-05-16T01:23:22.561Z,4.52
2023-05-16T01:24:22.543Z,4.71
2023-05-16T01:25:22.548Z,3.83
2023-05-16T01:26:22.573Z,4.23
2023-05-16T01:27:22.488Z,4.93
2023-05-16T01:28:22.478Z,4.31
2023-05-16T01:29:22.485Z,4.63
2023-05-16T01:30:22.485Z,5.00
2023-05-16T01:31:22.442Z,4.33
2023-05-16T01:32:22.434Z,4.52
2023-05-16T01:33:22.420Z,4.32
2023-05-16T01:34:22.362Z,4.38
2023-05-16T01:35:22.356Z,4.77
2023-05-16T01:36:22.378Z,4.62
2023-05-16T01:37:22.299Z,4.41
2023-05-16T01:38:22.288Z,4.22
2023-05-16T01:39:22.282Z,4.00
2023-05-16T01:40:22.294Z,4.63
2023-05-16T01:41:22.232Z,4.50
2023-05-16T01:42:22.252Z,4.10
2023-05-16T01:43:22.246Z,4.47
2023-05-16T01:44:22.171Z,4.45
2023-05-16T01:45:22.157Z,4.11
2023-05-16T01:46:22.184Z,4.27
2023-05-16T01:47:22.146Z,4.27
2023-05-16T01:48:22.102Z,4.14
2023-05-16T01:49:22.117Z,4.58
2023-05-16T01:50:22.098Z,5.10
2023-05-16T01:51:22.039Z,3.97
2023-05-16T01:52:22.024Z,3.86
2023-05-16T01:53:22.037Z,4.44
2023-05-16T01:54:21.993Z,3.89
2023-05-16T01:55:21.967Z,4.07
2023-05-16T01:56:21.954Z,4.25
2023-05-16T01:57:21.927Z,4.34
2023-05-16T01:58:21.975Z,4.32
2023-05-16T01:59:21.907Z,4.65
2023-05-16T02:00:21.868Z,4.59
2023-05-16T02:01:21.898Z,4.26
2023-05-16T02:02:21.864Z,3.92
2023-05-16T02:03:21.942Z,5.10
2023-05-16T02:04:21.848Z,4.58
2023-05-16T02:05:21.809Z,4.63
2023-05-16T02:06:21.768Z,4.57
2023-05-16T02:07:21.751Z,4.60
2023-05-16T02:08:21.768Z,4.39
2023-05-16T02:09:21.725Z,3.90
2023-05-16T02:10:21.698Z,3.95
2023-05-16T02:11:21.684Z,4.07
2023-05-16T02:12:21.673Z,3.99
2023-05-16T02:13:21.724Z,4.34
2023-05-16T02:14:21.659Z,4.02
2023-05-16T02:15:21.647Z,4.58
2023-05-16T02:16:21.646Z,3.88
2023-05-16T02:17:21.635Z,4.66
2023-05-16T02:18:21.621Z,4.12
2023-05-16T02:19:21.699Z,4.52
2023-05-16T02:20:21.569Z,4.56
2023-05-16T02:21:21.586Z,4.71
2023-05-16T02:22:21.534Z,4.77
2023-05-16T02:23:21.516Z,4.53
2023-05-16T02:24:21.550Z,3.92
2023-05-16T02:25:21.547Z,4.61
2023-05-16T02:26:21.470Z,4.08
2023-05-16T02:27:21.464Z,4.21
2023-05-16T02:28:21.460Z,4.10
2023-05-16T02:29:21.441Z,4.04
2023-05-16T02:30:21.415Z,4.53
2023-05-16T02:31:21.411Z,3.75
2023-05-16T02:32:21.445Z,4.16
2023-05-16T02:33:21.361Z,4.23
2023-05-16T02:34:21.338Z,3.99
2023-05-16T02:35:21.342Z,4.57
2023-05-16T02:36:21.323Z,4.08
2023-05-16T02:37:21.317Z,4.07
2023-05-16T02:38:21.267Z,4.12
2023-05-16T02:39:21.247Z,4.38
2023-05-16T02:40:21.264Z,4.73
2023-05-16T02:41:21.222Z,4.10
2023-05-16T02:42:21.204Z,4.16
2023-05-16T02:43:21.199Z,3.67
2023-05-16T02:44:21.217Z,4.12
2023-05-16T02:45:21.227Z,4.31
2023-05-16T02:46:21.194Z,4.45
2023-05-16T02:47:21.202Z,3.75
2023-05-16T02:48:21.120Z,4.26
2023-05-16T02:49:21.116Z,4.22
2023-05-16T02:50:21.137Z,4.38
2023-05-16T02:51:21.100Z,4.25
2023-05-16T02:52:21.059Z,4.01
2023-05-16T02:53:21.080Z,4.45
2023-05-16T02:54:21.085Z,4.43
2023-05-16T02:55:22.547Z,3.81
2023-05-16T02:56:21.064Z,4.43
2023-05-16T02:57:21.068Z,4.54
2023-05-16T02:58:20.902Z,4.24
2023-05-16T02:59:20.879Z,3.67
2023-05-16T03:00:20.841Z,4.09
2023-05-16T03:01:20.851Z,3.84
2023-05-16T03:02:20.765Z,3.54
2023-05-16T03:03:20.802Z,4.45
2023-05-16T03:04:20.660Z,3.71
2023-05-16T03:05:20.617Z,3.70
2023-05-16T03:06:20.577Z,3.55
2023-05-16T03:07:20.530Z,4.42
2023-05-16T03:08:20.491Z,4.15
2023-05-16T03:09:20.472Z,3.89
2023-05-16T03:10:20.404Z,4.25
2023-05-16T03:11:20.360Z,4.08
2023-05-16T03:12:20.313Z,4.00
2023-05-16T03:13:20.276Z,3.68
2023-05-16T03:14:20.224Z,4.36
2023-05-16T03:15:20.217Z,4.04
2023-05-16T03:16:20.186Z,4.23
2023-05-16T03:17:20.121Z,4.17
2023-05-16T03:18:20.046Z,4.44
2023-05-16T03:19:20.156Z,4.03
2023-05-16T03:20:20.006Z,3.86
2023-05-16T03:21:19.924Z,4.44
2023-05-16T03:22:19.891Z,3.77
2023-05-16T03:23:19.832Z,3.69
2023-05-16T03:24:19.835Z,3.95
2023-05-16T03:25:19.767Z,3.82
2023-05-16T03:26:19.707Z,4.14
2023-05-16T03:27:19.687Z,3.96
2023-05-16T03:28:19.629Z,4.06
2023-05-16T03:29:19.581Z,4.30
2023-05-16T03:30:19.543Z,3.97
2023-05-16T03:31:19.568Z,3.96
2023-05-16T03:32:19.561Z,3.63
2023-05-16T03:33:19.428Z,3.55
2023-05-16T03:34:19.385Z,3.33
2023-05-16T03:35:19.350Z,3.95
2023-05-16T03:36:19.336Z,3.55
2023-05-16T03:37:19.272Z,4.24
2023-05-16T03:38:19.217Z,3.97
2023-05-16T03:39:19.177Z,3.23
2023-05-16T03:40:19.142Z,3.88
2023-05-16T03:41:19.157Z,4.15
2023-05-16T03:42:19.060Z,4.60
2023-05-16T03:43:19.011Z,3.50
2023-05-16T03:44:18.965Z,3.54
2023-05-16T03:45:19.007Z,3.72
2023-05-16T03:46:18.907Z,3.54
2023-05-16T03:47:18.885Z,4.07
2023-05-16T03:48:18.853Z,4.05
2023-05-16T03:49:18.848Z,3.60
2023-05-16T03:50:18.848Z,3.75
2023-05-16T03:51:18.812Z,4.26
2023-05-16T03:52:18.812Z,4.08
2023-05-16T03:53:18.800Z,3.88
2023-05-16T03:54:18.783Z,3.80
2023-05-16T03:55:18.776Z,4.05
2023-05-16T03:56:18.764Z,4.28
2023-05-16T03:57:18.762Z,3.68
2023-05-16T03:58:18.728Z,3.32
2023-05-16T03:59:18.748Z,4.19
2023-05-16T04:00:18.726Z,3.87
2023-05-16T04:01:18.674Z,4.30
2023-05-16T04:02:18.979Z,3.82
2023-05-16T04:03:18.702Z,3.54
2023-05-16T04:04:18.627Z,3.82
2023-05-16T04:05:18.665Z,4.32
2023-05-16T04:06:18.700Z,3.91
2023-05-16T04:07:18.567Z,3.84
2023-05-16T04:08:18.555Z,3.82
2023-05-16T04:09:18.536Z,3.26
2023-05-16T04:10:18.522Z,3.96
2023-05-16T04:11:18.507Z,3.76
2023-05-16T04:12:18.487Z,4.10
2023-05-16T04:13:18.512Z,3.96
2023-05-16T04:14:18.428Z,3.95
2023-05-16T04:15:18.416Z,4.11
2023-05-16T04:16:18.435Z,3.88
2023-05-16T04:17:18.365Z,3.89
2023-05-16T04:18:18.458Z,3.62
2023-05-16T04:19:18.439Z,3.07
2023-05-16T04:20:18.318Z,3.36
2023-05-16T04:21:18.330Z,3.64
2023-05-16T04:22:18.282Z,3.27
2023-05-16T04:23:18.267Z,3.91
2023-05-16T04:24:18.262Z,3.81
2023-05-16T04:25:18.242Z,3.91
2023-05-16T04:26:18.252Z,3.51
2023-05-16T04:27:18.212Z,4.05
2023-05-16T04:28:18.196Z,4.01
2023-05-16T04:29:18.206Z,3.90
2023-05-16T04:30:18.161Z,3.34
2023-05-16T04:31:18.193Z,3.68
2023-05-16T04:32:18.141Z,3.95
2023-05-16T04:33:18.119Z,3.61
2023-05-16T04:34:18.104Z,3.92
2023-05-16T04:35:18.079Z,3.36
2023-05-16T04:36:18.083Z,3.56
2023-05-16T04:37:18.050Z,3.98
2023-05-16T04:38:18.036Z,3.57
2023-05-16T04:39:18.026Z,3.73
2023-05-16T04:40:18.029Z,3.69
2023-05-16T04:41:18.005Z,3.84
2023-05-16T04:42:17.977Z,3.14
2023-05-16T04:43:17.960Z,3.71
2023-05-16T04:44:17.950Z,3.02
2023-05-16T04:45:17.951Z,3.72
2023-05-16T04:46:17.953Z,4.10
2023-05-16T04:47:17.905Z,3.72
2023-05-16T04:48:17.881Z,4.04
2023-05-16T04:49:17.870Z,3.97
2023-05-16T04:50:17.873Z,3.33
2023-05-16T04:51:17.834Z,3.65
2023-05-16T04:52:17.832Z,3.77
2023-05-16T04:53:17.816Z,3.41
2023-05-16T04:54:17.813Z,4.07
2023-05-16T04:55:17.798Z,3.30
2023-05-16T04:56:17.761Z,3.91
2023-05-16T04:57:17.763Z,3.83
2023-05-16T04:58:17.742Z,4.20
2023-05-16T04:59:17.729Z,4.28
2023-05-16T05:00:17.732Z,3.80
2023-05-16T05:01:17.763Z,3.41
2023-05-16T05:02:17.657Z,4.03
2023-05-16T05:03:17.710Z,3.79
2023-05-16T05:04:17.633Z,3.84
2023-05-16T05:05:17.658Z,3.32
2023-05-16T05:06:17.614Z,3.45
2023-05-16T05:07:17.623Z,3.21
2023-05-16T05:08:17.575Z,3.43
2023-05-16T05:09:17.557Z,3.80
2023-05-16T05:10:17.529Z,2.96
2023-05-16T05:11:17.508Z,3.38
2023-05-16T05:12:17.846Z,3.30
2023-05-16T05:13:17.483Z,3.04
2023-05-16T05:14:17.452Z,3.32
2023-05-16T05:15:17.446Z,3.51
2023-05-16T05:16:17.414Z,3.12
2023-05-16T05:17:17.439Z,3.08
2023-05-16T05:18:17.460Z,3.07
2023-05-16T05:19:17.421Z,3.21
2023-05-16T05:20:17.345Z,2.72
2023-05-16T05:21:17.352Z,2.89
2023-05-16T05:22:17.299Z,3.04
2023-05-16T05:23:17.281Z,2.45
2023-05-16T05:24:17.245Z,3.27
2023-05-16T05:25:17.258Z,2.69
2023-05-16T05:26:17.454Z,3.08
2023-05-16T05:27:17.181Z,2.92
2023-05-16T05:28:17.157Z,3.02
2023-05-16T05:29:17.150Z,2.40
2023-05-16T05:30:17.125Z,2.67
2023-05-16T05:31:17.421Z,2.72
2023-05-16T05:32:17.130Z,2.69
2023-05-16T05:33:17.154Z,2.81
2023-05-16T05:34:17.008Z,2.72
2023-05-16T05:35:16.970Z,2.39
2023-05-16T05:36:16.951Z,2.32
2023-05-16T05:37:17.357Z,2.48
2023-05-16T05:38:16.898Z,2.59
2023-05-16T05:39:16.837Z,2.60
2023-05-16T05:40:16.799Z,2.46
2023-05-16T05:41:16.888Z,2.35
2023-05-16T05:42:16.743Z,2.63
2023-05-16T05:43:16.733Z,2.37
2023-05-16T05:44:16.675Z,2.18
2023-05-16T05:45:16.649Z,2.33
2023-05-16T05:46:16.978Z,2.24
2023-05-16T05:47:16.613Z,2.71
2023-05-16T05:48:16.575Z,2.68
2023-05-16T05:49:16.561Z,2.45
2023-05-16T05:50:16.543Z,2.29
2023-05-16T05:51:16.859Z,2.44
2023-05-16T05:52:16.444Z,3.04
2023-05-16T05:53:16.537Z,2.49
2023-05-16T05:54:16.374Z,2.38
2023-05-16T05:55:16.352Z,2.23
2023-05-16T05:56:32.008Z,2.36
2023-05-16T05:57:19.572Z,2.14
2023-05-16T05:58:19.944Z,2.46
2023-05-16T05:59:16.424Z,2.09
2023-05-16T06:00:17.165Z,2.51
2023-05-16T06:01:16.363Z,2.55
2023-05-16T06:02:17.133Z,2.43
2023-05-16T06:03:16.089Z,2.36
2023-05-16T06:04:16.364Z,2.28
2023-05-16T06:05:15.998Z,2.28
2023-05-16T06:06:16.800Z,2.93
2023-05-16T06:07:19.391Z,2.75
2023-05-16T06:08:16.331Z,2.17
2023-05-16T06:09:15.848Z,1.98
2023-05-16T06:10:15.711Z,2.21
2023-05-16T06:11:15.729Z,2.41
2023-05-16T06:12:15.624Z,2.49
2023-05-16T06:13:16.058Z,2.28
2023-05-16T06:14:15.871Z,2.10
2023-05-16T06:15:15.737Z,1.98
2023-05-16T06:16:15.925Z,2.01
2023-05-16T06:17:15.418Z,2.13
2023-05-16T06:18:15.396Z,2.38
2023-05-16T06:19:15.829Z,1.90
2023-05-16T06:20:15.742Z,2.09
2023-05-16T06:21:15.591Z,1.90
2023-05-16T06:22:16.328Z,1.66
2023-05-16T06:23:15.321Z,1.96
2023-05-16T06:24:15.781Z,1.93
2023-05-16T06:25:15.152Z,2.02
2023-05-16T06:26:15.715Z,2.03
2023-05-16T06:27:15.667Z,1.67
2023-05-16T06:28:15.627Z,1.75
2023-05-16T06:29:16.081Z,1.54
2023-05-16T06:30:15.459Z,1.49
2023-05-16T06:31:15.784Z,1.88
2023-05-16T06:32:15.608Z,1.75
2023-05-16T06:33:15.479Z,1.87
2023-05-16T06:34:15.348Z,2.38
2023-05-16T06:35:15.321Z,1.77
2023-05-16T06:36:15.389Z,2.39
2023-05-16T06:37:15.301Z,1.79
2023-05-16T06:38:15.411Z,1.81
2023-05-16T06:39:15.264Z,2.08
2023-05-16T06:40:15.149Z,1.83
2023-05-16T06:41:15.586Z,2.09
2023-05-16T06:42:15.538Z,2.44
2023-05-16T06:43:15.732Z,1.92
2023-05-16T06:44:15.770Z,2.30
2023-05-16T06:45:15.530Z,2.06
2023-05-16T06:46:16.262Z,1.95
2023-05-16T06:47:16.685Z,2.04
2023-05-16T06:48:23.310Z,2.24
2023-05-16T06:50:18.577Z,2.15
2023-05-16T06:51:15.499Z,2.19
2023-05-16T06:52:15.682Z,2.01
2023-05-16T06:53:19.872Z,2.36
2023-05-16T06:54:15.403Z,2.07
2023-05-16T06:55:22.918Z,2.00
2023-05-16T06:56:15.900Z,2.01
2023-05-16T06:57:16.781Z,2.26
2023-05-16T06:58:15.709Z,1.73
2023-05-16T06:59:15.355Z,2.32
2023-05-16T07:00:15.359Z,2.07
2023-05-16T07:01:15.412Z,2.51
2023-05-16T07:02:15.746Z,2.05
2023-05-16T07:03:15.636Z,2.27
2023-05-16T07:04:15.985Z,1.86
2023-05-16T07:05:15.443Z,1.88
2023-05-16T07:06:15.773Z,2.41
2023-05-16T07:07:15.525Z,2.26
2023-05-16T07:08:15.539Z,3.09
2023-05-16T07:09:16.568Z,2.06
2023-05-16T07:10:15.514Z,2.00
2023-05-16T07:11:15.815Z,2.06
2023-05-16T07:12:16.041Z,2.26
2023-05-16T07:13:15.929Z,2.05
2023-05-16T07:14:16.245Z,1.74
2023-05-16T07:15:16.005Z,2.11
2023-05-16T07:16:16.357Z,2.20
2023-05-16T07:17:15.944Z,2.08
2023-05-16T07:18:15.829Z,2.07
2023-05-16T07:19:16.573Z,2.25
2023-05-16T07:20:15.754Z,2.33
2023-05-16T07:21:53.803Z,1.71
2023-05-16T07:22:54.673Z,2.51
2023-05-16T07:23:54.750Z,2.40
2023-05-16T07:24:54.694Z,2.48
2023-05-16T07:25:54.715Z,2.23
2023-05-16T07:26:54.306Z,1.85
2023-05-16T07:27:54.871Z,2.53
2023-05-16T07:28:54.591Z,2.43
2023-05-16T07:29:54.457Z,2.07
2023-05-16T07:30:54.656Z,2.65
2023-05-16T07:31:57.521Z,2.45
2023-05-16T07:33:01.885Z,1.85
2023-05-16T07:33:54.538Z,2.37
2023-05-16T07:34:54.638Z,2.45
2023-05-16T07:36:12.085Z,2.36
2023-05-16T07:37:11.202Z,2.66
2023-05-16T07:38:01.821Z,2.39
2023-05-16T07:38:57.726Z,2.19
2023-05-16T07:39:57.822Z,2.57
2023-05-16T07:40:54.481Z,2.69
2023-05-16T07:41:54.290Z,2.45
2023-05-16T07:42:54.211Z,2.51
2023-05-16T07:43:54.554Z,2.78
2023-05-16T07:44:55.567Z,2.67
2023-05-16T07:45:54.692Z,2.54
2023-05-16T07:46:54.276Z,3.06
2023-05-16T07:47:54.677Z,2.37
2023-05-16T07:48:54.212Z,2.45
2023-05-16T07:49:54.222Z,6.56
2023-05-16T07:50:55.848Z,2.62
2023-05-16T07:51:54.489Z,3.15
2023-05-16T07:52:54.524Z,3.58
2023-05-16T07:53:54.572Z,2.82
2023-05-16T07:54:54.602Z,2.84
2023-05-16T07:55:55.043Z,2.66
2023-05-16T07:56:54.728Z,3.04
2023-05-16T07:57:54.711Z,2.74
2023-05-16T07:58:54.807Z,2.41
2023-05-16T07:59:54.887Z,2.61
2023-05-16T08:00:54.877Z,2.35
2023-05-16T08:01:54.984Z,2.79
2023-05-16T08:02:55.055Z,2.92
2023-05-16T08:03:55.120Z,2.40
2023-05-16T08:04:55.290Z,2.65
2023-05-16T08:05:55.427Z,1.91
2023-05-16T08:06:55.492Z,2.40
2023-05-16T08:07:55.036Z,2.49
2023-05-16T08:08:55.043Z,2.50
2023-05-16T08:09:55.064Z,2.62
2023-05-16T08:10:55.503Z,2.91
2023-05-16T08:11:56.216Z,2.71
2023-05-16T08:12:55.132Z,2.20
2023-05-16T08:13:55.155Z,2.73
2023-05-16T08:14:55.174Z,2.84
2023-05-16T08:15:55.499Z,2.66
2023-05-16T08:16:58.433Z,2.70
2023-05-16T08:17:55.510Z,2.61
2023-05-16T08:18:55.212Z,2.73
2023-05-16T08:19:55.185Z,2.40
2023-05-16T08:20:55.175Z,3.34
2023-05-16T08:21:55.157Z,2.72
2023-05-16T08:22:58.347Z,3.49
2023-05-16T08:23:55.489Z,2.92
2023-05-16T08:24:55.500Z,2.54
2023-05-16T08:25:56.133Z,2.91
2023-05-16T08:26:55.123Z,3.46
2023-05-16T08:27:54.225Z,2.75
2023-05-16T08:28:55.494Z,2.90
2023-05-16T08:29:55.304Z,2.85
2023-05-16T08:30:55.133Z,2.57
2023-05-16T08:31:55.205Z,2.91
2023-05-16T08:32:55.157Z,3.02
2023-05-16T08:33:55.494Z,2.88
2023-05-16T08:34:56.252Z,2.92
2023-05-16T08:35:55.033Z,2.91
2023-05-16T08:36:55.027Z,2.60
2023-05-16T08:37:55.022Z,2.56
2023-05-16T08:38:56.550Z,2.96
2023-05-16T08:39:55.668Z,3.14
2023-05-16T08:41:02.505Z,3.49
2023-05-16T08:41:58.688Z,2.86
2023-05-16T08:42:55.106Z,2.98
2023-05-16T08:43:56.069Z,3.15
2023-05-16T08:44:57.260Z,2.91
2023-05-16T08:45:55.495Z,3.05
2023-05-16T08:46:56.116Z,3.41
2023-05-16T08:47:55.058Z,3.10
2023-05-16T08:48:55.497Z,2.85
2023-05-16T08:49:55.503Z,3.19
2023-05-16T08:50:55.984Z,3.00
2023-05-16T08:51:55.984Z,3.36
2023-05-16T08:52:54.967Z,2.49
2023-05-16T08:53:54.940Z,2.81
2023-05-16T08:55:09.134Z,3.17
2023-05-16T08:55:54.912Z,2.95
2023-05-16T08:56:54.885Z,2.82
2023-05-16T08:57:54.868Z,2.39
2023-05-16T08:58:54.856Z,2.90
2023-05-16T08:59:55.801Z,2.82
2023-05-16T09:00:54.921Z,2.46
2023-05-16T09:01:54.828Z,2.59
2023-05-16T09:02:54.840Z,2.93
2023-05-16T09:03:54.860Z,2.46
2023-05-16T09:04:54.799Z,2.90
2023-05-16T09:05:54.831Z,2.99
2023-05-16T09:06:54.773Z,2.78
2023-05-16T09:07:54.754Z,3.06
2023-05-16T09:08:54.747Z,2.67
2023-05-16T09:09:54.729Z,2.61
2023-05-16T09:10:55.046Z,2.77
2023-05-16T09:11:54.685Z,2.67
2023-05-16T09:12:54.686Z,2.54
2023-05-16T09:13:54.666Z,2.53
2023-05-16T09:14:54.647Z,3.34
2023-05-16T09:15:54.682Z,2.59
2023-05-16T09:16:55.127Z,2.24
2023-05-16T09:17:54.716Z,2.63
2023-05-16T09:18:54.732Z,2.44
2023-05-16T09:19:54.569Z,2.57
2023-05-16T09:20:54.554Z,2.40
2023-05-16T09:21:55.050Z,2.35
2023-05-16T09:22:54.550Z,3.16
2023-05-16T09:23:55.501Z,2.65
2023-05-16T09:24:54.477Z,1.95
2023-05-16T09:25:54.435Z,2.15
2023-05-16T09:26:56.021Z,2.15
2023-05-16T09:27:54.525Z,1.95
2023-05-16T09:28:54.504Z,1.58
2023-05-16T09:29:54.522Z,2.06
2023-05-16T09:30:54.541Z,2.26
2023-05-16T09:31:54.564Z,5.38
2023-05-16T09:32:54.571Z,4.09
2023-05-16T09:33:54.469Z,2.85
2023-05-16T09:34:55.437Z,2.48
2023-05-16T09:35:54.441Z,2.71
2023-05-16T09:36:54.522Z,2.46
2023-05-16T09:37:54.426Z,2.49
2023-05-16T09:38:54.424Z,2.27
2023-05-16T09:39:54.442Z,1.94
2023-05-16T09:40:54.455Z,2.10
2023-05-16T09:41:54.522Z,2.55
2023-05-16T09:42:54.466Z,2.12
2023-05-16T09:43:54.463Z,1.99
2023-05-16T09:44:54.455Z,2.50
2023-05-16T09:45:54.558Z,2.16
2023-05-16T09:46:54.621Z,2.27
2023-05-16T09:47:54.538Z,2.17
2023-05-16T09:48:54.518Z,2.41
2023-05-16T09:49:55.540Z,2.32
2023-05-16T09:50:54.801Z,2.18
2023-05-16T09:51:55.069Z,2.16
2023-05-16T09:52:54.630Z,2.24
2023-05-16T09:53:54.634Z,2.20
2023-05-16T09:54:55.026Z,1.73
2023-05-16T09:55:54.822Z,1.72
2023-05-16T09:56:55.940Z,2.15
2023-05-16T09:57:54.889Z,2.21
2023-05-16T09:58:54.835Z,1.77
2023-05-16T09:59:55.030Z,2.20
2023-05-16T10:00:55.025Z,2.21
2023-05-16T10:01:55.959Z,2.26
2023-05-16T10:02:58.534Z,2.30
2023-05-16T10:03:55.208Z,2.11
2023-05-16T10:04:55.025Z,2.32
2023-05-16T10:05:55.026Z,1.76
2023-05-16T10:06:54.938Z,2.22
2023-05-16T10:07:54.933Z,1.89
2023-05-16T10:09:03.293Z,2.04
2023-05-16T10:10:02.443Z,1.97
2023-05-16T10:10:54.905Z,2.54
2023-05-16T10:11:55.062Z,2.04
2023-05-16T10:12:58.080Z,2.13
2023-05-16T10:13:55.580Z,1.97
2023-05-16T10:14:55.063Z,1.79
2023-05-16T10:15:54.951Z,2.42
2023-05-16T10:16:55.090Z,2.09
2023-05-16T10:17:54.956Z,1.82
2023-05-16T10:18:54.954Z,2.19
2023-05-16T10:19:58.118Z,2.10
2023-05-16T10:20:54.876Z,1.99
2023-05-16T10:22:02.433Z,1.89
2023-05-16T10:22:54.853Z,1.78
2023-05-16T10:23:54.832Z,2.01
2023-05-16T10:24:54.874Z,2.46
2023-05-16T10:26:10.625Z,1.82
2023-05-16T10:26:54.859Z,2.17
2023-05-16T10:27:54.794Z,2.25
2023-05-16T10:28:54.802Z,1.98
2023-05-16T10:29:55.214Z,2.30
2023-05-16T10:30:55.036Z,1.94
2023-05-16T10:31:54.800Z,2.16
2023-05-16T10:32:54.840Z,2.56
2023-05-16T10:33:54.753Z,1.71
2023-05-16T10:34:54.809Z,2.18
2023-05-16T10:35:55.049Z,1.97
2023-05-16T10:36:54.727Z,2.20
2023-05-16T10:37:54.731Z,2.01
2023-05-16T10:38:55.042Z,1.96
2023-05-16T10:39:54.707Z,1.91
2023-05-16T10:40:54.726Z,2.08
2023-05-16T10:41:54.698Z,2.05
2023-05-16T10:42:54.669Z,1.94
2023-05-16T10:43:55.065Z,1.78
2023-05-16T10:45:05.056Z,2.11
2023-05-16T10:45:55.713Z,2.09
2023-05-16T10:46:55.041Z,2.46
2023-05-16T10:47:54.715Z,2.15
2023-05-16T10:48:56.563Z,2.21
2023-05-16T10:49:54.633Z,2.55
2023-05-16T10:50:55.282Z,2.35
2023-05-16T10:51:55.047Z,1.93
2023-05-16T10:52:54.599Z,2.33
2023-05-16T10:53:54.726Z,2.21
2023-05-16T10:54:54.586Z,1.93
2023-05-16T10:55:55.043Z,2.15
2023-05-16T10:56:55.044Z,2.14
2023-05-16T10:57:54.556Z,1.89
2023-05-16T10:58:54.568Z,2.06
2023-05-16T10:59:55.678Z,2.26
2023-05-16T11:00:55.095Z,2.47
2023-05-16T11:01:55.209Z,2.09
2023-05-16T11:02:55.260Z,2.78
2023-05-16T11:03:54.918Z,1.80
2023-05-16T11:04:54.937Z,1.76
2023-05-16T11:05:54.979Z,2.14
2023-05-16T11:06:55.070Z,2.24
2023-05-16T11:07:55.151Z,2.20
2023-05-16T11:08:55.180Z,2.22
2023-05-16T11:09:55.269Z,1.94
2023-05-16T11:10:55.309Z,2.35
2023-05-16T11:11:55.555Z,2.37
2023-05-16T11:12:55.415Z,2.37
2023-05-16T11:13:55.492Z,2.32
2023-05-16T11:14:55.555Z,2.23
2023-05-16T11:15:55.612Z,2.42
2023-05-16T11:16:56.119Z,2.23
2023-05-16T11:17:55.785Z,2.27
2023-05-16T11:18:56.084Z,2.27
2023-05-16T11:19:55.884Z,2.68
2023-05-16T11:20:56.013Z,2.38
2023-05-16T11:21:56.060Z,2.41
2023-05-16T11:22:56.126Z,2.45
2023-05-16T11:23:56.124Z,2.21
2023-05-16T11:24:56.212Z,2.86
2023-05-16T11:25:56.246Z,2.94
2023-05-16T11:26:56.578Z,2.41
2023-05-16T11:27:57.552Z,2.38
2023-05-16T11:28:56.442Z,2.65
2023-05-16T11:29:56.521Z,2.38
2023-05-16T11:30:56.615Z,2.38
2023-05-16T11:31:57.139Z,2.39
2023-05-16T11:32:57.139Z,2.47
2023-05-16T11:33:56.775Z,2.42
2023-05-16T11:34:57.838Z,2.74
2023-05-16T11:36:11.155Z,2.65
2023-05-16T11:36:56.907Z,2.48
2023-05-16T11:37:57.055Z,3.10
2023-05-16T11:38:57.364Z,2.75
2023-05-16T11:39:57.127Z,2.60
2023-05-16T11:40:56.907Z,2.74
2023-05-16T11:41:57.059Z,2.88
2023-05-16T11:42:56.892Z,2.59
2023-05-16T11:43:56.899Z,2.62
2023-05-16T11:44:57.062Z,3.08
2023-05-16T11:45:56.905Z,3.09
2023-05-16T11:46:57.191Z,2.83
2023-05-16T11:47:57.128Z,3.11
2023-05-16T11:48:56.906Z,3.09
2023-05-16T11:49:56.896Z,3.06
2023-05-16T11:50:56.901Z,3.41
2023-05-16T11:51:57.063Z,2.90
2023-05-16T11:52:57.195Z,2.57
2023-05-16T11:53:56.943Z,3.22
2023-05-16T11:54:57.067Z,3.50
2023-05-16T11:55:57.280Z,3.24
2023-05-16T11:56:57.141Z,3.53
2023-05-16T11:57:57.565Z,3.91
2023-05-16T11:58:57.270Z,3.70
2023-05-16T11:59:57.356Z,4.08
2023-05-16T12:00:57.413Z,3.62
2023-05-16T12:01:56.572Z,3.23
2023-05-16T12:02:57.682Z,3.04
2023-05-16T12:03:57.818Z,3.26
2023-05-16T12:04:57.699Z,3.90
2023-05-16T12:05:57.752Z,3.91
2023-05-16T12:06:58.069Z,3.62
2023-05-16T12:07:57.898Z,3.75
2023-05-16T12:08:58.073Z,3.57
2023-05-16T12:09:58.044Z,3.99
2023-05-16T12:10:58.165Z,3.90
2023-05-16T12:11:58.166Z,3.90
2023-05-16T12:12:58.605Z,3.97
2023-05-16T12:13:58.303Z,4.20
2023-05-16T12:15:01.564Z,3.63
2023-05-16T12:15:58.399Z,3.48
2023-05-16T12:16:58.681Z,3.50
2023-05-16T12:17:59.462Z,3.36
2023-05-16T12:18:58.424Z,3.53
2023-05-16T12:19:58.400Z,3.19
2023-05-16T12:20:58.850Z,3.81
2023-05-16T12:21:58.603Z,3.52
2023-05-16T12:22:58.622Z,3.67
2023-05-16T12:23:58.665Z,3.73
2023-05-16T12:24:58.557Z,3.96
2023-05-16T12:25:58.554Z,4.06
2023-05-16T12:26:59.278Z,3.52
2023-05-16T12:27:58.694Z,3.51
2023-05-16T12:28:58.812Z,3.26
2023-05-16T12:29:58.953Z,4.03
2023-05-16T12:30:58.932Z,3.30
2023-05-16T12:31:59.100Z,3.31
2023-05-16T12:32:59.240Z,3.28
2023-05-16T12:33:59.143Z,3.26
2023-05-16T12:34:59.200Z,3.20
2023-05-16T12:35:59.224Z,3.79
2023-05-16T12:36:59.652Z,3.33
2023-05-16T12:37:59.338Z,3.34
2023-05-16T12:38:59.397Z,3.30
2023-05-16T12:39:59.597Z,3.62
2023-05-16T12:40:59.473Z,3.79
2023-05-16T12:41:59.594Z,3.02
2023-05-16T12:43:00.753Z,3.64
2023-05-16T12:43:59.615Z,3.61
2023-05-16T12:44:59.679Z,3.85
2023-05-16T12:45:59.748Z,3.80
2023-05-16T12:46:59.751Z,4.08
2023-05-16T12:48:00.149Z,3.19
2023-05-16T12:49:00.096Z,3.46
2023-05-16T12:49:59.910Z,4.95
2023-05-16T12:50:59.980Z,3.54
2023-05-16T12:52:00.058Z,3.59
2023-05-16T12:53:04.497Z,3.46
2023-05-16T12:54:09.801Z,3.44
2023-05-16T12:55:00.127Z,4.01
2023-05-16T12:56:00.087Z,3.83
2023-05-16T12:57:00.485Z,4.00
2023-05-16T12:58:00.212Z,3.23
2023-05-16T12:59:00.135Z,3.49
2023-05-16T13:00:00.124Z,4.00
2023-05-16T13:01:00.102Z,3.37
2023-05-16T13:02:00.769Z,3.85
2023-05-16T13:03:00.778Z,3.14
2023-05-16T13:04:00.171Z,3.61
2023-05-16T13:05:00.088Z,4.07
2023-05-16T13:06:00.080Z,3.58
2023-05-16T13:07:00.270Z,3.02
2023-05-16T13:08:00.613Z,3.72
2023-05-16T13:09:00.116Z,3.61
2023-05-16T13:10:00.089Z,3.42
2023-05-16T13:11:00.108Z,3.92
2023-05-16T13:12:00.097Z,3.78
2023-05-16T13:13:00.423Z,3.47
2023-05-16T13:14:00.219Z,3.34
2023-05-16T13:15:00.396Z,3.83
2023-05-16T13:16:00.443Z,3.78
2023-05-16T13:17:00.409Z,3.48
2023-05-16T13:18:00.504Z,3.89
2023-05-16T13:19:00.577Z,3.46
2023-05-16T13:20:00.566Z,3.83
2023-05-16T13:21:00.643Z,3.16